• Join FlightAware (Why Join?)
  • Login
  • US Flag 
01:34PM EDT


 

Airport Tracker/Info


-or-


 

Live Flight TrackerFlight Track Log ✈ UPS1132 ✈ 18-May-2013 ✈ KSDF - KSYR

Flight Track Log - Related Links

Times and Time Zones

All times are in EDT time to prevent confusion due to time zone crossing. See the UPS1132 flight status page for this flight to view local times or setup timezone preferences in your user account.

Time Position Orientation Groundspeed Altitude Reporting Facility
EDT Latitude Longitude Course Direction KTS MPH feet Rate Location/Type
05:42AM 38.1660 -85.7240 159° South 161 185 900  Level FlightAware
05:43AM 38.1440 -85.7190 170° South 174 200 2,300 2,280 Climbing FlightAware
05:43AM 38.1220 -85.7150 172° South 199 229 3,000 1,620 Climbing FlightAware
05:44AM 38.0930 -85.7070 168° South 230 265 3,800 1,860 Climbing FlightAware
05:44AM 38.0800 -85.6950 144° Southeast 239 275 4,400 2,640 Climbing FlightAware
05:44AM 38.0750 -85.6830 118° Southeast 244 281 4,900 2,700 Climbing FlightAware
05:44AM 38.0720 -85.6680 104° East 254 292 5,300 2,760 Climbing FlightAware
05:45AM 38.0910 -85.6190 64° Northeast 271 312 7,000 2,640 Climbing FlightAware
05:45AM 38.1060 -85.6060 34° Northeast 281 323 7,500 2,400 Climbing FlightAware
05:46AM 38.1330 -85.5800 37° Northeast 285 328 8,600 2,700 Climbing FlightAware
05:46AM 38.1470 -85.5630 44° Northeast 286 329 9,300 2,280 Climbing FlightAware
05:46AM 38.1790 -85.5160 49° Northeast 309 356 10,500 1,500 Climbing FlightAware
05:47AM 38.2290 -85.4360 51° Northeast 360 414 11,500 1,200 Climbing FlightAware
05:48AM 38.2850 -85.3500 50° Northeast 370 426 12,600 660 Climbing FlightAware
05:49AM 38.3210 -85.2930 51° Northeast 370 426 12,600 3,060 Level FlightAware
05:50AM 38.3820 -85.1870 54° Northeast 396 456 17,000 3,960 Climbing FlightAware
05:50AM 38.4310 -85.1040 53° Northeast 405 466 18,600 2,040 Climbing FlightAware
05:51AM 38.4760 -85.0300 52° Northeast 410 472 19,900 1,020 Climbing FlightAware
05:52AM 38.5110 -84.9690 54° Northeast 410 472 19,900  Level FlightAware
05:52AM 38.5500 -84.9030 53° Northeast 410 472 19,900  Level FlightAware
05:53AM 38.5990 -84.8210 53° Northeast 410 472 19,900  Level FlightAware
05:54AM 38.6380 -84.7550 53° Northeast 410 472 19,900  Level FlightAware
05:54AM 38.6760 -84.6890 54° Northeast 410 472 19,900 3,240 Level FlightAware
05:57AM 38.8370 -84.2220 66° East 476 548 29,900 3,180 Climbing FlightAware
05:58AM 38.9060 -84.1060 53° Northeast 477 549 30,500 1,800 Climbing FlightAware
05:58AM 38.9700 -83.9970 53° Northeast 467 537 32,900 2,460 Climbing FlightAware
05:59AM 39.0220 -83.9100 52° Northeast 463 533 34,000 1,560 Climbing FlightAware
06:00AM 39.0730 -83.8230 53° Northeast 459 528 35,000 660 Climbing FlightAware
06:01AM 39.1320 -83.7220 53° Northeast 460 529 35,000  Level FlightAware
06:01AM 39.1810 -83.6390 53° Northeast 465 535 35,000 480 Level FlightAware
06:02AM 39.2410 -83.5360 53° Northeast 464 534 35,700 1,080 Climbing FlightAware
06:02AM 39.2780 -83.4730 53° Northeast 460 529 36,400 960 Climbing FlightAware
06:03AM 39.3430 -83.3620 53° Northeast 460 529 37,000 360 Climbing FlightAware
06:04AM 39.3980 -83.2660 53° Northeast 460 529 37,000  Level FlightAware
06:05AM 39.4520 -83.1730 53° Northeast 465 535 37,000  Level FlightAware
06:05AM 39.5060 -83.0800 53° Northeast 465 535 37,000  Level FlightAware
06:06AM 39.5780 -82.9560 53° Northeast 465 535 37,000  Level FlightAware
06:08AM 39.6850 -82.7690 53° Northeast 465 535 37,000  Level FlightAware
06:08AM 39.7430 -82.6680 53° Northeast 466 536 37,000  Level FlightAware
06:09AM 39.7950 -82.5760 54° Northeast 466 536 37,000  Level FlightAware
06:10AM 39.8510 -82.4760 54° Northeast 465 535 37,000  Level FlightAware
06:11AM 39.9020 -82.3860 54° Northeast 466 536 37,000  Level FlightAware
06:11AM 39.9610 -82.2810 54° Northeast 465 535 37,000  Level FlightAware
06:12AM 40.0110 -82.1920 54° Northeast 465 535 37,000  Level FlightAware
06:13AM 40.0630 -82.1000 54° Northeast 464 534 37,000  Level FlightAware
06:13AM 40.1210 -81.9970 54° Northeast 464 534 37,000  Level FlightAware
06:14AM 40.1700 -81.9100 54° Northeast 464 534 37,000  Level FlightAware
06:15AM 40.2230 -81.8140 54° Northeast 464 534 37,000  Level FlightAware
06:15AM 40.2790 -81.7140 54° Northeast 464 534 37,000  Level FlightAware
06:16AM 40.3310 -81.6210 54° Northeast 464 534 37,000  Level FlightAware
06:17AM 40.3810 -81.5290 54° Northeast 465 535 37,000  Level FlightAware
06:18AM 40.4370 -81.4270 54° Northeast 465 535 37,000  Level FlightAware
06:18AM 40.4870 -81.3360 54° Northeast 464 534 37,000  Level FlightAware
06:19AM 40.5360 -81.2450 55° Northeast 463 533 37,000  Level FlightAware
06:20AM 40.5940 -81.1380 54° Northeast 463 533 37,000  Level FlightAware
06:20AM 40.6410 -81.0510 55° Northeast 463 533 37,000  Level FlightAware
06:21AM 40.6990 -80.9440 54° Northeast 463 533 37,000  Level FlightAware
06:22AM 40.7480 -80.8540 54° Northeast 463 533 37,000  Level FlightAware
06:22AM 40.7980 -80.7600 55° Northeast 464 534 37,000  Level FlightAware
06:23AM 40.8530 -80.6570 55° Northeast 465 535 37,000  Level FlightAware
06:24AM 40.9030 -80.5640 55° Northeast 466 536 37,000 -360 Level FlightAware
06:25AM 40.9580 -80.4600 55° Northeast 465 535 36,500 -1,020 Descending FlightAware
06:25AM 41.0140 -80.3550 55° Northeast 469 540 35,500 -1,380 Descending FlightAware
06:26AM 41.0640 -80.2610 55° Northeast 475 547 34,600 -1,140 Descending FlightAware
06:27AM 41.1160 -80.1600 56° Northeast 481 554 34,000 -480 Descending FlightAware
06:27AM 41.1670 -80.0630 55° Northeast 484 557 34,000  Level FlightAware
06:28AM 41.2160 -79.9710 55° Northeast 487 560 34,000  Level FlightAware
06:29AM 41.2660 -79.8750 55° Northeast 485 558 34,000  Level FlightAware
06:29AM 41.3340 -79.7440 55° Northeast 483 556 34,000  Level FlightAware
06:30AM 41.3890 -79.6380 55° Northeast 482 555 34,000  Level FlightAware
06:31AM 41.4410 -79.5380 55° Northeast 482 555 34,000  Level FlightAware
06:32AM 41.4880 -79.4480 55° Northeast 481 554 34,000  Level FlightAware
06:32AM 41.5410 -79.3440 56° Northeast 482 555 34,000  Level FlightAware
06:33AM 41.5950 -79.2390 55° Northeast 481 554 34,000 -480 Level FlightAware
06:34AM 41.6510 -79.1300 55° Northeast 481 554 33,400 -1,020 Descending FlightAware
06:34AM 41.6950 -79.0430 56° Northeast 485 558 32,700 -1,320 Descending FlightAware
06:35AM 41.7530 -78.9280 56° Northeast 489 563 31,700 -1,200 Descending FlightAware
06:36AM 41.8080 -78.8180 56° Northeast 489 563 30,900 -1,140 Descending FlightAware
06:36AM 41.8540 -78.7280 56° Northeast 492 566 30,200 -1,320 Descending FlightAware
06:37AM 41.9110 -78.6130 56° Northeast 496 571 29,200 -1,440 Descending FlightAware
06:38AM 41.9700 -78.4970 56° Northeast 499 574 28,100 -900 Descending FlightAware
06:39AM 42.0200 -78.3960 56° Northeast 484 557 28,000 -120 Descending FlightAware
06:39AM 42.0750 -78.2840 56° Northeast 480 552 28,000  Level FlightAware
06:40AM 42.1260 -78.1860 55° Northeast 474 545 28,000  Level FlightAware
06:41AM 42.1810 -78.0950 51° Northeast 474 545 28,000  Level FlightAware
06:41AM 42.2430 -77.9910 51° Northeast 477 549 28,000  Level FlightAware
06:42AM 42.2990 -77.8960 51° Northeast 475 547 28,000  Level FlightAware
06:43AM 42.3600 -77.7910 52° Northeast 475 547 28,000  Level FlightAware
06:43AM 42.4130 -77.6990 52° Northeast 475 547 28,000  Level FlightAware
06:44AM 42.4660 -77.6080 52° Northeast 473 544 28,000  Level FlightAware
06:45AM 42.5280 -77.5000 52° Northeast 470 541 28,000 -120 Level FlightAware
06:46AM 42.5830 -77.4040 52° Northeast 471 542 27,900 -1,800 Descending FlightAware
06:46AM 42.6410 -77.3020 52° Northeast 487 560 25,500 -3,780 Descending FlightAware
06:47AM 42.6970 -77.2040 52° Northeast 488 562 22,600 -4,320 Descending FlightAware
06:48AM 42.7580 -77.0960 52° Northeast 464 534 19,400 -4,140 Descending FlightAware
06:48AM 42.8090 -77.0040 53° Northeast 444 511 16,800 -4,020 Descending FlightAware
06:49AM 42.8480 -76.9240 56° Northeast 427 491 14,400 -3,840 Descending FlightAware
06:50AM 42.8970 -76.8110 59° Northeast 395 455 11,400 -2,580 Descending FlightAware
06:50AM 42.9260 -76.7450 59° Northeast 335 386 10,800 -960 Descending FlightAware
06:51AM 42.9630 -76.6610 59° Northeast 309 356 10,000 -480 Descending FlightAware
06:52AM 42.9940 -76.5900 59° Northeast 309 356 10,000  Level FlightAware
06:53AM 43.0190 -76.5330 59° Northeast 309 356 10,000 -4,320 Level FlightAware
06:53AM 43.0394 -76.4831 59° Northeast 277 319 5,800 -4,320 Descending Boston Center
06:54AM 43.0778 -76.3975 58° Northeast 259 298 4,300 -1,560 Descending Boston Center
06:55AM 43.1142 -76.3144 59° Northeast 255 293 2,700 -1,200 Descending Boston Center
06:56AM 43.1458 -76.2339 62° Northeast 232 267 1,900 -600 Descending Boston Center
06:57AM 43.1542 -76.1747 79° East 129 148 1,500 -540 Descending Boston Center
06:58AM 43.1367 -76.1364 122° Southeast 110 127 900 -600 Descending Boston Center